Aviation Digital Data Service (ADDS)

Output produced by METARs form (0610 UTC 30 August 2014)
found at http://aviationweather.gov/adds/metars/
 
KBPT 300604Z AUTO 19015G25KT 1SM R12/2800VP6000FT VCTS +RA BR BKN012 OVC026 23/22 A2992 RMK AO2 P0019 T02330222